Port-Menier, Canada
Current Conditions -  °F | °C
As of 12:00 AM on Saturday 25 Oct 2014 (Local Time) from CYGV Reporting Station
Broken Clouds Broken Clouds  
Wind Chill: 42°   Ceiling: 18000
Heat Index: 46°   Visibility: 9mi
Dew Point: 32°   Wind: 9mph
Humidity: 57%   Direction: 30°NNE
Pressure: 29.71"   Gusts: NA
Location:  49.83°N, 64.37°W
Report Text: CYGV 250300Z AUTO 03008KT 9SM BKN180 08/M00 A2971 RMK SLP062
Loading
Personal Weather Stations






























Interactive Weather Map
Tropical Storm Tracking
New forecast layout! Learn more

10-Day Weather Forecast

Advertisements
Track Severe Weather on mobile